Time;durP1;ratioP1;P1;durP2;ratioP2;P2;SDS_P1;SDS_P2;PMS_P1;PMS_P2;Temp;Humidity;BMP_temperature;BMP_pressure;BME280_temperature;BME280_humidity;BME280_pressure;Samples;Min_cycle;Max_cycle;Signal;HPM_P1;HPM_P2
2022/09/24 00:01:52;;;;;;;22.02;10.02;;;;;;;;;;5046947;28;20041;-64
2022/09/24 00:04:17;;;;;;;17.48;9.20;;;;;;;;;;5042222;28;20053;-64
2022/09/24 00:06:46;;;;;;;20.25;9.90;;;;;;;;;;5028176;28;20025;-64
2022/09/24 00:09:14;;;;;;;17.83;9.20;;;;;;;;;;5043333;28;20021;-64
2022/09/24 00:11:40;;;;;;;20.48;9.20;;;;;;;;;;5058084;28;20075;-64
2022/09/24 00:14:06;;;;;;;18.33;9.23;;;;;;;;;;5066885;28;20055;-64
2022/09/24 00:16:32;;;;;;;19.85;9.98;;;;;;;;;;5049093;28;20063;-64
2022/09/24 00:18:59;;;;;;;21.60;9.55;;;;;;;;;;5031458;28;20048;-64
2022/09/24 00:21:32;;;;;;;18.10;9.35;;;;;;;;;;5046075;28;20074;-64
2022/09/24 00:26:48;;;;;;;22.23;10.63;;;;;;;;;;5050827;28;20546;-64
2022/09/24 00:26:56;;;;;;;22.45;9.80;;;;;;;;;;5046413;28;20033;-64
2022/09/24 00:29:23;;;;;;;19.67;10.18;;;;;;;;;;5048283;28;20040;-64
2022/09/24 00:31:50;;;;;;;18.27;9.75;;;;;;;;;;5047066;28;20586;-64
2022/09/24 00:34:16;;;;;;;20.52;10.73;;;;;;;;;;5046782;28;20174;-64
2022/09/24 00:36:43;;;;;;;23.13;10.40;;;;;;;;;;5046603;28;20433;-64
2022/09/24 00:39:08;;;;;;;19.45;9.88;;;;;;;;;;5042624;28;20121;-64
2022/09/24 00:41:36;;;;;;;23.50;10.40;;;;;;;;;;5045451;28;20138;-64
2022/09/24 00:44:40;;;;;;;21.15;10.13;;;;;;;;;;5027662;28;20067;-63
2022/09/24 00:47:13;;;;;;;19.53;10.30;;;;;;;;;;5046750;28;20104;-64
2022/09/24 00:49:39;;;;;;;21.92;10.23;;;;;;;;;;5051339;28;20633;-64
2022/09/24 00:52:05;;;;;;;21.88;9.43;;;;;;;;;;5038509;28;20060;-64
2022/09/24 00:54:31;;;;;;;19.70;9.65;;;;;;;;;;5051046;28;20056;-64
2022/09/24 00:56:58;;;;;;;20.15;10.38;;;;;;;;;;5049486;28;20037;-64
2022/09/24 00:59:24;;;;;;;21.88;10.50;;;;;;;;;;5056494;28;20045;-64
2022/09/24 01:01:52;;;;;;;21.75;10.88;;;;;;;;;;5047394;28;20083;-64
2022/09/24 01:04:21;;;;;;;21.77;10.20;;;;;;;;;;5052239;28;20063;-64
2022/09/24 01:06:48;;;;;;;21.08;10.30;;;;;;;;;;5049149;28;20056;-64
2022/09/24 01:09:15;;;;;;;19.13;9.75;;;;;;;;;;5046519;28;20421;-64
2022/09/24 01:12:15;;;;;;;19.23;10.35;;;;;;;;;;5049650;28;20037;-64
2022/09/24 01:15:01;;;;;;;19.90;10.05;;;;;;;;;;5041427;28;20630;-64
2022/09/24 01:18:01;;;;;;;21.95;10.52;;;;;;;;;;5049955;28;20053;-64
2022/09/24 01:20:52;;;;;;;19.48;9.55;;;;;;;;;;5037198;28;20037;-64
2022/09/24 01:23:45;;;;;;;19.38;10.45;;;;;;;;;;5050043;28;20587;-64
2022/09/24 01:26:32;;;;;;;17.90;9.70;;;;;;;;;;5049608;28;20036;-64
2022/09/24 01:29:20;;;;;;;20.70;9.45;;;;;;;;;;5053678;28;20537;-64
2022/09/24 01:31:52;;;;;;;19.77;9.65;;;;;;;;;;5043976;28;20037;-63
2022/09/24 01:34:25;;;;;;;17.92;8.57;;;;;;;;;;5031479;28;20086;-64
2022/09/24 01:36:53;;;;;;;18.00;9.75;;;;;;;;;;5050857;28;20159;-64
2022/09/24 01:39:19;;;;;;;21.80;9.82;;;;;;;;;;5044153;28;20021;-64
2022/09/24 01:41:46;;;;;;;19.90;10.07;;;;;;;;;;5049318;28;20079;-64
2022/09/24 01:44:12;;;;;;;18.83;9.45;;;;;;;;;;5049292;28;20112;-64
2022/09/24 01:46:39;;;;;;;20.60;9.40;;;;;;;;;;5049406;28;20116;-64
2022/09/24 01:49:06;;;;;;;19.98;9.27;;;;;;;;;;5049101;28;20785;-64
2022/09/24 01:51:51;;;;;;;18.50;9.70;;;;;;;;;;5066604;28;20614;-64
2022/09/24 01:54:23;;;;;;;18.55;10.20;;;;;;;;;;5051505;28;20040;-64
2022/09/24 01:57:10;;;;;;;20.52;9.88;;;;;;;;;;5057240;28;20043;-64
2022/09/24 01:59:42;;;;;;;21.02;9.90;;;;;;;;;;5048211;28;20045;-64
2022/09/24 02:02:16;;;;;;;18.73;10.15;;;;;;;;;;5049282;28;20084;-64
2022/09/24 02:04:46;;;;;;;17.95;10.10;;;;;;;;;;5048738;28;20041;-63
2022/09/24 02:07:20;;;;;;;21.67;10.30;;;;;;;;;;5046642;28;20083;-63
2022/09/24 02:09:46;;;;;;;20.02;10.40;;;;;;;;;;5045344;28;20017;-64
2022/09/24 02:12:19;;;;;;;20.80;10.98;;;;;;;;;;5039510;28;20052;-64
2022/09/24 02:15:11;;;;;;;18.20;9.93;;;;;;;;;;5028770;28;20467;-64
2022/09/24 02:17:40;;;;;;;20.63;10.85;;;;;;;;;;5035872;28;20059;-64
2022/09/24 02:20:14;;;;;;;20.83;9.52;;;;;;;;;;5051569;28;20049;-63
2022/09/24 02:22:41;;;;;;;20.77;10.50;;;;;;;;;;5044561;28;20535;-64
2022/09/24 02:25:10;;;;;;;24.08;11.18;;;;;;;;;;5029965;28;20129;-63
2022/09/24 02:27:36;;;;;;;18.90;10.00;;;;;;;;;;5048872;28;20063;-64
2022/09/24 02:30:01;;;;;;;22.77;10.30;;;;;;;;;;5048799;28;20104;-64
2022/09/24 02:32:30;;;;;;;23.08;10.32;;;;;;;;;;5044563;28;21046;-64
2022/09/24 02:35:00;;;;;;;20.02;10.10;;;;;;;;;;5056569;28;20036;-64
2022/09/24 02:37:25;;;;;;;17.85;9.90;;;;;;;;;;5068486;28;20047;-64
2022/09/24 02:39:50;;;;;;;19.35;9.45;;;;;;;;;;5056622;28;20037;-64
2022/09/24 02:42:18;;;;;;;21.58;9.98;;;;;;;;;;5051912;28;20886;-64
2022/09/24 02:44:43;;;;;;;19.60;9.73;;;;;;;;;;5044772;28;20064;-64
2022/09/24 02:47:10;;;;;;;20.05;9.80;;;;;;;;;;5047554;28;20127;-64
2022/09/24 02:49:36;;;;;;;20.50;9.27;;;;;;;;;;5030602;28;20036;-64
2022/09/24 02:52:01;;;;;;;21.85;9.43;;;;;;;;;;5047501;28;20029;-64
2022/09/24 02:54:26;;;;;;;19.40;9.77;;;;;;;;;;5048276;28;20036;-64
2022/09/24 02:56:52;;;;;;;18.10;9.20;;;;;;;;;;5048321;28;20041;-64
2022/09/24 02:59:18;;;;;;;20.02;9.45;;;;;;;;;;5047934;28;20045;-64
2022/09/24 03:01:44;;;;;;;17.88;9.35;;;;;;;;;;5047024;28;20037;-64
2022/09/24 03:04:09;;;;;;;18.60;9.13;;;;;;;;;;5030077;28;20037;-64
2022/09/24 03:06:35;;;;;;;18.27;9.13;;;;;;;;;;5047643;28;20055;-64
2022/09/24 03:09:02;;;;;;;19.23;8.88;;;;;;;;;;5048335;28;20401;-64
2022/09/24 03:11:28;;;;;;;18.00;9.48;;;;;;;;;;5031288;28;20048;-64
2022/09/24 03:13:54;;;;;;;18.00;9.15;;;;;;;;;;5049390;28;20533;-64
2022/09/24 03:16:19;;;;;;;21.27;9.23;;;;;;;;;;5050177;28;20036;-64
2022/09/24 03:18:47;;;;;;;18.63;9.63;;;;;;;;;;5067486;28;20038;-64
2022/09/24 03:21:15;;;;;;;20.27;8.82;;;;;;;;;;5042148;28;20031;-64
2022/09/24 03:23:41;;;;;;;15.45;8.25;;;;;;;;;;5042439;28;20037;-64
2022/09/24 03:26:06;;;;;;;21.35;9.82;;;;;;;;;;5045618;28;20041;-64
2022/09/24 03:28:32;;;;;;;17.52;8.65;;;;;;;;;;5048021;28;20410;-64
2022/09/24 03:31:00;;;;;;;20.33;9.32;;;;;;;;;;5049161;28;20089;-64
2022/09/24 03:33:37;;;;;;;17.48;8.85;;;;;;;;;;5068084;28;20031;-64
2022/09/24 03:36:11;;;;;;;17.88;8.48;;;;;;;;;;5067689;28;20041;-64
2022/09/24 03:38:38;;;;;;;19.02;8.75;;;;;;;;;;5029718;28;20037;-64
2022/09/24 03:41:05;;;;;;;17.70;9.07;;;;;;;;;;5051150;28;20036;-64
2022/09/24 03:43:31;;;;;;;17.67;8.13;;;;;;;;;;5051718;28;20498;-64
2022/09/24 03:45:57;;;;;;;17.90;9.27;;;;;;;;;;5050493;28;20033;-64
2022/09/24 03:48:23;;;;;;;18.48;9.07;;;;;;;;;;5058932;28;20596;-63
2022/09/24 03:50:49;;;;;;;19.38;8.80;;;;;;;;;;5061180;28;20033;-64
2022/09/24 03:53:15;;;;;;;19.08;9.40;;;;;;;;;;5045012;28;20048;-64
2022/09/24 03:56:01;;;;;;;18.13;9.00;;;;;;;;;;5045930;28;20612;-64
2022/09/24 03:58:30;;;;;;;17.00;8.18;;;;;;;;;;5066824;28;20173;-64
2022/09/24 04:00:56;;;;;;;20.17;8.68;;;;;;;;;;5062620;28;20037;-64
2022/09/24 04:03:21;;;;;;;17.33;8.23;;;;;;;;;;5055388;28;20025;-64
2022/09/24 04:05:50;;;;;;;19.25;8.63;;;;;;;;;;5062306;28;20040;-64
2022/09/24 04:08:17;;;;;;;21.02;8.82;;;;;;;;;;5066978;28;20518;-64
2022/09/24 04:10:45;;;;;;;18.60;8.90;;;;;;;;;;5044002;28;20045;-64
2022/09/24 04:13:10;;;;;;;20.25;9.20;;;;;;;;;;5025626;28;20041;-64
2022/09/24 04:15:35;;;;;;;21.70;9.13;;;;;;;;;;5034932;28;20017;-64
2022/09/24 04:18:00;;;;;;;22.23;9.07;;;;;;;;;;5063551;28;20024;-64
2022/09/24 04:20:27;;;;;;;18.35;8.90;;;;;;;;;;5060158;28;20505;-64
2022/09/24 04:22:54;;;;;;;20.23;9.18;;;;;;;;;;5054894;28;20037;-63
2022/09/24 04:25:21;;;;;;;21.20;9.48;;;;;;;;;;5039407;28;20107;-64
2022/09/24 04:27:54;;;;;;;20.50;9.43;;;;;;;;;;5045365;28;20020;-64
2022/09/24 04:30:20;;;;;;;19.35;9.05;;;;;;;;;;5050193;28;20009;-64
2022/09/24 04:32:46;;;;;;;21.48;9.25;;;;;;;;;;5055533;28;20636;-64
2022/09/24 04:35:11;;;;;;;20.85;9.65;;;;;;;;;;5050930;28;20036;-64
2022/09/24 04:37:37;;;;;;;22.67;10.40;;;;;;;;;;5053199;28;20132;-64
2022/09/24 04:40:08;;;;;;;21.58;9.82;;;;;;;;;;5055288;28;20049;-64
2022/09/24 04:42:33;;;;;;;17.95;9.27;;;;;;;;;;5033398;28;20052;-64
2022/09/24 04:44:58;;;;;;;18.20;9.57;;;;;;;;;;5050576;28;20529;-64
2022/09/24 04:47:24;;;;;;;23.10;10.32;;;;;;;;;;5052257;28;20119;-64
2022/09/24 04:49:50;;;;;;;24.33;10.40;;;;;;;;;;5070765;28;20045;-64
2022/09/24 04:52:16;;;;;;;20.52;10.00;;;;;;;;;;5070192;28;20425;-63
2022/09/24 04:54:43;;;;;;;22.17;9.73;;;;;;;;;;5070640;28;20059;-64
2022/09/24 04:57:09;;;;;;;21.60;9.27;;;;;;;;;;5041368;28;20033;-64
2022/09/24 04:59:35;;;;;;;22.63;10.18;;;;;;;;;;5034764;28;20029;-64
2022/09/24 05:02:00;;;;;;;21.98;9.90;;;;;;;;;;5030361;28;20039;-64
2022/09/24 05:04:25;;;;;;;20.38;9.82;;;;;;;;;;5029554;28;20041;-64
2022/09/24 05:06:51;;;;;;;18.23;9.45;;;;;;;;;;5036775;28;20024;-64
2022/09/24 05:09:16;;;;;;;21.15;9.90;;;;;;;;;;5050885;28;20405;-64
2022/09/24 05:11:41;;;;;;;25.17;10.27;;;;;;;;;;5050003;28;20073;-64
2022/09/24 05:14:07;;;;;;;20.00;10.20;;;;;;;;;;5050339;28;20049;-64
2022/09/24 05:16:32;;;;;;;20.35;10.15;;;;;;;;;;5050764;28;20025;-64
2022/09/24 05:18:58;;;;;;;20.25;10.68;;;;;;;;;;5063530;28;20048;-64
2022/09/24 05:21:23;;;;;;;23.83;10.13;;;;;;;;;;5048405;28;20025;-64
2022/09/24 05:23:48;;;;;;;20.88;10.68;;;;;;;;;;5047903;28;20048;-64
2022/09/24 05:28:57;;;;;;;23.48;10.63;;;;;;;;;;5050285;28;20063;-63
2022/09/24 05:31:22;;;;;;;23.52;10.65;;;;;;;;;;5053474;28;20044;-64
2022/09/24 05:33:48;;;;;;;20.80;10.38;;;;;;;;;;5043997;28;20033;-64
2022/09/24 05:36:13;;;;;;;20.55;10.15;;;;;;;;;;5048584;28;20129;-64
2022/09/24 05:38:39;;;;;;;20.30;10.23;;;;;;;;;;5046980;28;20043;-64
2022/09/24 05:41:04;;;;;;;25.20;10.90;;;;;;;;;;5048730;28;20037;-64
2022/09/24 05:43:30;;;;;;;24.35;10.93;;;;;;;;;;5049445;28;20513;-64
2022/09/24 05:45:57;;;;;;;22.38;10.32;;;;;;;;;;5049621;28;20033;-64
2022/09/24 05:48:24;;;;;;;20.77;9.77;;;;;;;;;;5051253;28;20021;-64
2022/09/24 05:50:54;;;;;;;25.00;10.95;;;;;;;;;;5047635;28;20128;-64
2022/09/24 05:53:19;;;;;;;24.48;10.93;;;;;;;;;;5051021;28;20123;-64
2022/09/24 05:55:44;;;;;;;22.05;10.63;;;;;;;;;;5049538;28;20119;-64
2022/09/24 05:58:10;;;;;;;21.20;10.43;;;;;;;;;;5047894;28;20033;-63
2022/09/24 06:00:36;;;;;;;22.35;10.80;;;;;;;;;;5049328;28;20510;-64
2022/09/24 06:03:09;;;;;;;23.77;10.32;;;;;;;;;;5048822;28;20067;-64
2022/09/24 06:05:34;;;;;;;;;;;;;;;;;;5055579;28;20114;-63
2022/09/24 06:08:02;;;;;;;17.38;9.18;;;;;;;;;;5068908;28;19920;-64
2022/09/24 06:10:27;;;;;;;20.77;10.02;;;;;;;;;;5068691;28;20044;-64
2022/09/24 06:12:52;;;;;;;21.95;9.88;;;;;;;;;;5069135;28;20033;-64
2022/09/24 06:15:19;;;;;;;20.30;9.73;;;;;;;;;;5045985;28;20033;-64
2022/09/24 06:17:45;;;;;;;22.45;10.98;;;;;;;;;;5030984;28;20039;-64
2022/09/24 06:20:10;;;;;;;22.23;9.38;;;;;;;;;;5043281;28;20037;-64
2022/09/24 06:22:36;;;;;;;23.08;10.07;;;;;;;;;;5054742;28;20119;-64
2022/09/24 06:25:01;;;;;;;28.95;10.82;;;;;;;;;;5035572;28;20071;-64
2022/09/24 06:27:26;;;;;;;21.95;11.05;;;;;;;;;;5048842;28;20078;-64
2022/09/24 06:29:52;;;;;;;21.88;9.93;;;;;;;;;;5047424;28;20040;-64
2022/09/24 06:32:18;;;;;;;27.50;11.70;;;;;;;;;;5045943;28;20099;-64
2022/09/24 06:34:44;;;;;;;27.08;10.95;;;;;;;;;;5026932;28;20064;-64
2022/09/24 06:37:09;;;;;;;25.83;10.18;;;;;;;;;;5028598;28;20073;-64
2022/09/24 06:39:34;;;;;;;21.63;10.40;;;;;;;;;;5037007;28;20031;-64
2022/09/24 06:42:00;;;;;;;24.08;10.55;;;;;;;;;;5047201;28;20127;-62
2022/09/24 06:44:25;;;;;;;22.55;10.07;;;;;;;;;;5033019;28;20047;-63
2022/09/24 06:46:51;;;;;;;22.38;10.05;;;;;;;;;;5042858;28;20033;-64
2022/09/24 06:49:17;;;;;;;20.52;9.50;;;;;;;;;;5010524;28;20529;-63
2022/09/24 06:51:43;;;;;;;24.98;10.98;;;;;;;;;;5024673;28;20029;-64
2022/09/24 06:54:08;;;;;;;23.63;10.55;;;;;;;;;;5028714;28;20029;-63
2022/09/24 06:56:33;;;;;;;23.05;10.52;;;;;;;;;;5033635;28;20029;-64
2022/09/24 06:58:59;;;;;;;25.67;11.55;;;;;;;;;;5040219;28;20120;-63
2022/09/24 07:01:24;;;;;;;23.42;10.25;;;;;;;;;;5035353;28;20721;-64
2022/09/24 07:03:49;;;;;;;21.35;10.00;;;;;;;;;;5040970;28;20040;-64
2022/09/24 07:06:15;;;;;;;20.35;9.98;;;;;;;;;;5038708;28;20048;-64
2022/09/24 07:08:40;;;;;;;24.33;11.07;;;;;;;;;;5037884;28;20030;-64
2022/09/24 07:11:07;;;;;;;20.83;10.00;;;;;;;;;;5039972;28;20052;-64
2022/09/24 07:13:32;;;;;;;24.73;10.13;;;;;;;;;;5044063;28;20037;-64
2022/09/24 07:15:57;;;;;;;27.08;10.35;;;;;;;;;;5042590;28;20039;-64
2022/09/24 07:18:23;;;;;;;24.50;11.48;;;;;;;;;;5045901;28;20036;-64
2022/09/24 07:20:53;;;;;;;23.92;11.57;;;;;;;;;;5012543;28;20521;-64
2022/09/24 07:23:20;;;;;;;22.08;9.93;;;;;;;;;;5026390;28;20044;-65
2022/09/24 07:25:47;;;;;;;19.67;9.65;;;;;;;;;;5035309;28;20044;-64
2022/09/24 07:28:16;;;;;;;21.23;10.20;;;;;;;;;;5039578;28;20028;-64
2022/09/24 07:30:42;;;;;;;21.13;10.57;;;;;;;;;;5039564;28;20021;-65
2022/09/24 07:33:07;;;;;;;26.20;10.60;;;;;;;;;;5037737;28;20696;-64
2022/09/24 07:35:36;;;;;;;22.90;10.80;;;;;;;;;;5038970;28;20610;-64
2022/09/24 07:38:05;;;;;;;21.42;10.15;;;;;;;;;;5043456;28;20036;-64
2022/09/24 07:40:31;;;;;;;22.25;11.27;;;;;;;;;;5029827;28;20033;-64
2022/09/24 07:42:57;;;;;;;20.35;11.23;;;;;;;;;;5030285;28;20116;-65
2022/09/24 07:45:26;;;;;;;26.63;11.57;;;;;;;;;;5042802;28;20154;-65
2022/09/24 07:48:03;;;;;;;23.20;11.27;;;;;;;;;;5020375;28;20056;-64
2022/09/24 07:50:33;;;;;;;24.17;10.13;;;;;;;;;;5032485;28;20444;-64
2022/09/24 07:52:59;;;;;;;23.52;11.27;;;;;;;;;;5033213;28;20644;-65
2022/09/24 07:55:25;;;;;;;23.05;11.55;;;;;;;;;;5030768;28;20117;-64
2022/09/24 07:57:52;;;;;;;22.52;11.18;;;;;;;;;;5036940;28;20440;-64
2022/09/24 08:00:19;;;;;;;22.80;10.63;;;;;;;;;;5034131;28;20053;-64
2022/09/24 08:02:46;;;;;;;21.83;10.38;;;;;;;;;;5023046;28;20767;-64
2022/09/24 08:05:14;;;;;;;23.90;10.52;;;;;;;;;;5042098;28;20076;-64
2022/09/24 08:07:40;;;;;;;21.75;10.85;;;;;;;;;;5039710;28;20137;-65
2022/09/24 08:10:06;;;;;;;24.23;11.10;;;;;;;;;;5040797;28;20060;-64
2022/09/24 08:12:31;;;;;;;23.02;11.02;;;;;;;;;;5036140;28;20045;-65
2022/09/24 08:14:57;;;;;;;20.83;11.45;;;;;;;;;;5024626;28;20033;-64
2022/09/24 08:17:22;;;;;;;20.92;11.07;;;;;;;;;;5035622;28;20494;-65
2022/09/24 08:19:47;;;;;;;24.13;11.45;;;;;;;;;;5035299;28;20442;-64
2022/09/24 08:22:13;;;;;;;25.63;11.52;;;;;;;;;;5039680;28;20043;-64
2022/09/24 08:24:42;;;;;;;29.83;11.63;;;;;;;;;;5027686;28;20103;-65
2022/09/24 08:27:07;;;;;;;32.38;12.35;;;;;;;;;;5065594;28;20031;-65
2022/09/24 08:29:33;;;;;;;29.50;12.82;;;;;;;;;;5045925;28;20029;-65
2022/09/24 08:31:59;;;;;;;23.67;12.00;;;;;;;;;;5044945;28;20136;-64
2022/09/24 08:34:24;;;;;;;22.55;11.18;;;;;;;;;;5060297;28;20047;-64
2022/09/24 08:36:50;;;;;;;23.98;11.02;;;;;;;;;;5065645;28;20026;-64
2022/09/24 08:39:15;;;;;;;23.50;11.13;;;;;;;;;;5059224;28;20025;-64
2022/09/24 08:41:59;;;;;;;21.50;11.10;;;;;;;;;;5045126;28;20071;-64
2022/09/24 08:47:43;;;;;;;23.35;11.23;;;;;;;;;;5046101;28;20071;-64
2022/09/24 08:50:33;;;;;;;24.98;11.48;;;;;;;;;;5027753;28;20102;-65
2022/09/24 08:53:17;;;;;;;22.10;10.85;;;;;;;;;;5045132;28;20112;-64
2022/09/24 08:55:45;;;;;;;;;;;;;;;;;;5046268;28;20076;-64
2022/09/24 08:58:16;;;;;;;22.02;10.52;;;;;;;;;;5039337;28;19922;-64
2022/09/24 09:00:55;;;;;;;26.27;11.02;;;;;;;;;;5042345;28;20036;-63
2022/09/24 09:03:39;;;;;;;23.40;11.60;;;;;;;;;;5043291;28;20057;-64
2022/09/24 09:06:29;;;;;;;24.35;11.18;;;;;;;;;;5043440;28;20041;-64
2022/09/24 09:09:40;;;;;;;19.95;11.30;;;;;;;;;;5045427;28;20498;-63
2022/09/24 09:12:13;;;;;;;24.60;10.98;;;;;;;;;;5021442;28;20430;-64
2022/09/24 09:15:00;;;;;;;22.85;11.43;;;;;;;;;;5046551;28;20049;-64
2022/09/24 09:17:46;;;;;;;23.42;10.70;;;;;;;;;;5042462;28;20587;-64
2022/09/24 09:20:42;;;;;;;25.50;11.05;;;;;;;;;;5045066;28;20041;-64
2022/09/24 09:23:33;;;;;;;23.50;10.95;;;;;;;;;;5039300;28;20174;-63
2022/09/24 09:25:59;;;;;;;24.23;11.35;;;;;;;;;;5056353;28;20544;-63
2022/09/24 09:28:26;;;;;;;20.55;10.95;;;;;;;;;;5029482;28;20026;-64
2022/09/24 09:31:05;;;;;;;33.63;12.98;;;;;;;;;;5044470;28;20048;-64
2022/09/24 09:33:37;;;;;;;42.03;17.35;;;;;;;;;;5050320;28;20075;-64
2022/09/24 09:36:30;;;;;;;32.50;14.55;;;;;;;;;;5049110;28;20175;-64
2022/09/24 09:39:21;;;;;;;41.42;17.38;;;;;;;;;;5047935;28;20044;-64
2022/09/24 09:42:01;;;;;;;39.78;15.40;;;;;;;;;;5040665;28;20521;-63
2022/09/24 09:44:36;;;;;;;42.85;16.90;;;;;;;;;;5043545;28;20064;-64
2022/09/24 09:47:10;;;;;;;34.60;16.10;;;;;;;;;;5047919;28;20087;-64
2022/09/24 09:49:37;;;;;;;43.60;17.70;;;;;;;;;;5029181;28;20048;-63
2022/09/24 09:52:11;;;;;;;33.35;14.73;;;;;;;;;;5058023;28;20115;-63
2022/09/24 09:54:38;;;;;;;34.10;15.77;;;;;;;;;;5069055;28;20382;-64
2022/09/24 09:57:05;;;;;;;26.77;13.45;;;;;;;;;;5056548;28;20120;-64
2022/09/24 09:59:34;;;;;;;34.08;15.43;;;;;;;;;;5048750;28;20044;-63
2022/09/24 10:02:00;;;;;;;30.02;13.52;;;;;;;;;;5049060;28;20040;-63
2022/09/24 10:04:40;;;;;;;35.55;15.27;;;;;;;;;;5050356;28;20090;-64
2022/09/24 10:07:24;;;;;;;22.02;12.45;;;;;;;;;;5027368;28;20041;-64
2022/09/24 10:10:15;;;;;;;27.73;11.85;;;;;;;;;;5014628;28;20018;-63
2022/09/24 10:12:41;;;;;;;25.15;13.13;;;;;;;;;;5039456;28;20041;-64
2022/09/24 10:15:18;;;;;;;26.38;12.25;;;;;;;;;;5044168;28;20405;-64
2022/09/24 10:17:46;;;;;;;21.83;12.10;;;;;;;;;;5028964;28;20152;-63
2022/09/24 10:20:14;;;;;;;23.23;11.88;;;;;;;;;;5040733;28;20036;-64
2022/09/24 10:22:47;;;;;;;26.73;11.82;;;;;;;;;;5035162;28;20490;-64
2022/09/24 10:25:18;;;;;;;;;;;;;;;;;;5047970;28;20045;-64
2022/09/24 10:27:43;;;;;;;25.90;12.43;;;;;;;;;;5033494;28;19948;-64
2022/09/24 10:30:32;;;;;;;24.83;12.80;;;;;;;;;;5036493;28;20048;-63
2022/09/24 10:33:03;;;;;;;24.52;13.13;;;;;;;;;;5028390;28;20037;-64
2022/09/24 10:35:30;;;;;;;21.75;12.15;;;;;;;;;;5033482;28;20049;-64
2022/09/24 10:37:59;;;;;;;19.45;11.15;;;;;;;;;;5033427;28;20041;-63
2022/09/24 10:40:36;;;;;;;19.83;10.80;;;;;;;;;;5033782;28;20116;-63
2022/09/24 10:43:03;;;;;;;21.48;11.63;;;;;;;;;;5041290;28;20666;-63
2022/09/24 10:45:47;;;;;;;18.45;9.95;;;;;;;;;;5044044;28;20056;-63
2022/09/24 10:48:50;;;;;;;16.08;9.18;;;;;;;;;;5045395;28;20059;-63
2022/09/24 10:51:26;;;;;;;16.52;8.52;;;;;;;;;;5025804;28;20103;-63
2022/09/24 10:54:00;;;;;;;19.17;9.68;;;;;;;;;;5027725;28;20414;-63
2022/09/24 10:56:43;;;;;;;18.98;11.55;;;;;;;;;;5028918;28;20103;-63
2022/09/24 10:59:33;;;;;;;18.87;11.07;;;;;;;;;;5042653;28;20045;-63
2022/09/24 11:02:24;;;;;;;18.85;9.68;;;;;;;;;;5041937;28;20036;-63
2022/09/24 11:05:07;;;;;;;16.17;8.93;;;;;;;;;;5041360;28;20158;-63
2022/09/24 11:07:56;;;;;;;;;;;;;;;;;;5035034;28;20051;-63
2022/09/24 11:10:43;;;;;;;16.90;8.38;;;;;;;;;;5039033;28;20024;-63
2022/09/24 11:13:16;;;;;;;14.82;8.20;;;;;;;;;;5042564;28;20059;-63
2022/09/24 11:15:57;;;;;;;;;;;;;;;;;;5042659;28;20499;-63
2022/09/24 11:18:55;;;;;;;16.20;7.65;;;;;;;;;;5038924;28;19920;-63
2022/09/24 11:21:35;;;;;;;14.77;7.93;;;;;;;;;;5036898;28;20049;-63
2022/09/24 11:24:23;;;;;;;16.65;8.30;;;;;;;;;;5033402;28;20049;-63
2022/09/24 11:27:12;;;;;;;16.48;8.10;;;;;;;;;;5043621;28;20049;-63
2022/09/24 11:30:03;;;;;;;16.70;7.25;;;;;;;;;;5041387;28;20044;-63
2022/09/24 11:32:50;;;;;;;17.55;7.93;;;;;;;;;;5040321;28;20136;-63
2022/09/24 11:35:46;;;;;;;13.38;8.35;;;;;;;;;;5045020;28;20132;-63
2022/09/24 11:38:18;;;;;;;17.42;8.50;;;;;;;;;;5000390;28;20037;-64
2022/09/24 11:41:12;;;;;;;15.60;7.45;;;;;;;;;;5015290;28;20502;-63
2022/09/24 11:44:03;;;;;;;17.92;7.97;;;;;;;;;;5038514;28;20044;-63
2022/09/24 11:46:56;;;;;;;14.32;7.97;;;;;;;;;;5037460;28;20043;-63
2022/09/24 11:49:40;;;;;;;19.58;8.27;;;;;;;;;;5039771;28;20171;-63
2022/09/24 11:52:14;;;;;;;18.73;9.20;;;;;;;;;;5039894;28;20053;-63
2022/09/24 11:55:10;;;;;;;18.40;9.57;;;;;;;;;;5038994;28;20025;-63
2022/09/24 11:57:43;;;;;;;21.20;10.98;;;;;;;;;;5016330;28;20112;-63
2022/09/24 12:00:18;;;;;;;24.73;12.00;;;;;;;;;;5038149;28;20041;-63
2022/09/24 12:02:51;;;;;;;21.50;9.85;;;;;;;;;;5033656;28;20048;-63
2022/09/24 12:05:27;;;;;;;18.95;9.50;;;;;;;;;;5042666;28;20047;-63
2022/09/24 12:07:56;;;;;;;15.05;8.77;;;;;;;;;;5040451;28;20033;-63
2022/09/24 12:10:32;;;;;;;16.77;9.10;;;;;;;;;;5041242;28;20043;-63
2022/09/24 12:13:21;;;;;;;17.33;8.20;;;;;;;;;;5040507;28;20049;-63
2022/09/24 12:16:02;;;;;;;18.88;9.88;;;;;;;;;;5042137;28;20424;-63
2022/09/24 12:18:43;;;;;;;15.55;8.73;;;;;;;;;;5043132;28;20033;-63
2022/09/24 12:21:11;;;;;;;17.08;7.63;;;;;;;;;;5038980;28;20041;-63
2022/09/24 12:23:41;;;;;;;14.48;7.70;;;;;;;;;;5029938;28;20037;-63
2022/09/24 12:26:08;;;;;;;16.15;8.02;;;;;;;;;;5038856;28;20045;-63
2022/09/24 12:34:49;;;;;;;16.83;8.65;;;;;;;;;;5032646;28;20040;-63
2022/09/24 12:37:19;;;;;;;15.07;7.60;;;;;;;;;;5029261;28;20037;-63
2022/09/24 12:39:56;;;;;;;13.27;7.55;;;;;;;;;;5032710;28;20029;-63
2022/09/24 12:42:25;;;;;;;13.00;6.85;;;;;;;;;;5042068;28;20791;-63
2022/09/24 12:44:55;;;;;;;11.45;7.43;;;;;;;;;;5040748;28;20030;-63
2022/09/24 12:47:26;;;;;;;12.48;6.95;;;;;;;;;;5049941;28;20075;-63
2022/09/24 12:49:58;;;;;;;13.32;6.97;;;;;;;;;;5033620;28;20030;-63
2022/09/24 12:52:34;;;;;;;14.45;7.63;;;;;;;;;;5039325;28;20082;-63
2022/09/24 12:55:01;;;;;;;14.05;7.50;;;;;;;;;;5045086;28;20033;-63
2022/09/24 12:57:41;;;;;;;15.93;7.75;;;;;;;;;;5048037;28;20025;-63
2022/09/24 13:00:42;;;;;;;14.77;7.53;;;;;;;;;;5043271;28;20125;-63
2022/09/24 13:03:29;;;;;;;14.07;7.60;;;;;;;;;;5041928;28;20600;-63
2022/09/24 13:05:58;;;;;;;17.10;7.97;;;;;;;;;;5047288;28;20066;-63
2022/09/24 13:08:34;;;;;;;14.82;6.95;;;;;;;;;;5045925;28;20029;-63
2022/09/24 13:11:05;;;;;;;16.63;8.18;;;;;;;;;;5041803;28;20044;-63
2022/09/24 13:13:39;;;;;;;13.55;7.35;;;;;;;;;;5044696;28;20047;-63
2022/09/24 13:16:15;;;;;;;14.13;7.72;;;;;;;;;;5049146;28;20033;-63
2022/09/24 13:18:42;;;;;;;11.85;6.80;;;;;;;;;;5041341;28;20017;-64
2022/09/24 13:21:18;;;;;;;11.00;5.93;;;;;;;;;;5047116;28;20025;-65
2022/09/24 13:23:46;;;;;;;9.82;5.07;;;;;;;;;;5047741;28;20052;-67
2022/09/24 13:26:24;;;;;;;8.38;4.65;;;;;;;;;;5040038;28;20041;-66
2022/09/24 13:28:59;;;;;;;9.00;3.80;;;;;;;;;;5048812;28;20077;-68
2022/09/24 13:31:39;;;;;;;9.00;4.13;;;;;;;;;;5048222;28;20037;-68
2022/09/24 13:34:19;;;;;;;7.95;4.53;;;;;;;;;;5028327;28;20513;-65
2022/09/24 13:36:53;;;;;;;7.25;3.50;;;;;;;;;;5047198;28;20055;-66
2022/09/24 13:39:39;;;;;;;8.60;4.50;;;;;;;;;;5030460;28;20017;-68
2022/09/24 13:42:19;;;;;;;6.22;3.50;;;;;;;;;;5048306;28;20433;-65
2022/09/24 13:44:52;;;;;;;8.15;4.03;;;;;;;;;;5051450;28;20041;-65
2022/09/24 13:47:42;;;;;;;;;;;;;;;;;;5045987;28;20044;-65
2022/09/24 13:50:23;;;;;;;6.97;4.10;;;;;;;;;;5025385;28;20696;-65
2022/09/24 13:53:01;;;;;;;9.35;3.90;;;;;;;;;;5044810;28;20105;-67
2022/09/24 13:55:42;;;;;;;7.82;4.00;;;;;;;;;;5047851;28;20071;-67
2022/09/24 13:58:26;;;;;;;7.78;4.13;;;;;;;;;;5028862;28;20078;-67
2022/09/24 14:00:52;;;;;;;10.93;4.35;;;;;;;;;;5036778;28;20037;-67
2022/09/24 14:03:25;;;;;;;8.82;3.90;;;;;;;;;;5041559;28;20029;-67
2022/09/24 14:05:51;;;;;;;7.93;3.72;;;;;;;;;;5048214;28;20517;-66
2022/09/24 14:08:21;;;;;;;10.35;4.03;;;;;;;;;;5048024;28;20048;-67
2022/09/24 14:10:47;;;;;;;7.55;3.00;;;;;;;;;;5055830;28;20048;-67
2022/09/24 14:13:18;;;;;;;7.32;3.33;;;;;;;;;;5043090;28;20119;-68
2022/09/24 14:15:49;;;;;;;6.10;2.97;;;;;;;;;;5032337;28;20028;-67
2022/09/24 14:18:14;;;;;;;6.18;3.22;;;;;;;;;;5047576;28;20054;-69
2022/09/24 14:20:39;;;;;;;5.90;3.00;;;;;;;;;;5050524;28;20043;-67
2022/09/24 14:23:05;;;;;;;8.25;3.50;;;;;;;;;;5066899;28;20037;-66
2022/09/24 14:25:34;;;;;;;5.18;2.90;;;;;;;;;;5026058;28;20055;-66
2022/09/24 14:28:02;;;;;;;5.25;2.92;;;;;;;;;;5044659;28;20047;-66
2022/09/24 14:30:30;;;;;;;6.15;3.03;;;;;;;;;;5038282;28;20052;-65
2022/09/24 14:33:12;;;;;;;8.88;2.78;;;;;;;;;;5028274;28;20051;-66
2022/09/24 14:35:43;;;;;;;4.75;2.97;;;;;;;;;;5038155;28;20123;-66
2022/09/24 14:38:19;;;;;;;6.35;2.85;;;;;;;;;;5040916;28;20536;-65
2022/09/24 14:40:53;;;;;;;5.32;2.78;;;;;;;;;;5037502;28;20041;-65
2022/09/24 14:43:30;;;;;;;8.38;3.65;;;;;;;;;;5028826;28;20042;-66
2022/09/24 14:46:02;;;;;;;4.55;2.60;;;;;;;;;;5014973;28;20044;-66
2022/09/24 14:48:30;;;;;;;10.45;3.17;;;;;;;;;;5034312;28;20582;-66
2022/09/24 14:50:56;;;;;;;7.15;2.90;;;;;;;;;;5035111;28;20039;-66
2022/09/24 14:53:21;;;;;;;6.72;3.00;;;;;;;;;;5032357;28;20029;-66
2022/09/24 14:55:48;;;;;;;5.40;2.38;;;;;;;;;;5018885;28;20045;-66
2022/09/24 14:58:41;;;;;;;6.47;2.35;;;;;;;;;;5027259;28;20033;-65
2022/09/24 15:01:15;;;;;;;3.78;2.42;;;;;;;;;;5025542;28;20183;-65
2022/09/24 15:03:46;;;;;;;4.38;2.35;;;;;;;;;;5032702;28;20020;-65
2022/09/24 15:06:17;;;;;;;8.85;2.83;;;;;;;;;;5024579;28;20057;-65
2022/09/24 15:08:43;;;;;;;3.60;1.95;;;;;;;;;;5051076;28;20060;-65